Time;durP1;ratioP1;P1;durP2;ratioP2;P2;SDS_P1;SDS_P2;PMS_P1;PMS_P2;Temp;Humidity;BMP_temperature;BMP_pressure;BME280_temperature;BME280_humidity;BME280_pressure;Samples;Min_cycle;Max_cycle;Signal;HPM_P1;HPM_P2
2023/11/13 00:00:33;;;;;;;;;;;16.00;91.70;;;;;;5092567;28;20014;-73
2023/11/13 00:02:59;;;;;;;;;;;15.90;91.60;;;;;;5092445;28;20349;-73
2023/11/13 00:05:24;;;;;;;;;;;15.90;91.70;;;;;;5092939;28;19912;-73
2023/11/13 00:07:50;;;;;;;;;;;16.00;91.90;;;;;;5092414;28;19957;-73
2023/11/13 00:10:16;;;;;;;;;;;16.00;91.80;;;;;;5092391;28;19915;-73
2023/11/13 00:12:41;;;;;;;;;;;15.90;91.70;;;;;;5092200;28;19908;-73
2023/11/13 00:15:07;;;;;;;;;;;16.10;91.90;;;;;;5091047;28;19953;-73
2023/11/13 00:17:33;;;;;;;;;;;16.00;91.00;;;;;;5092398;28;20008;-73
2023/11/13 00:19:58;;;;;;;;;;;16.00;91.80;;;;;;5092360;28;20286;-73
2023/11/13 00:22:24;;;;;;;;;;;15.90;91.60;;;;;;5092822;28;19916;-73
2023/11/13 00:24:49;;;;;;;;;;;16.90;91.90;;;;;;5093519;28;19908;-73
2023/11/13 00:27:14;;;;;;;;;;;15.90;91.80;;;;;;5096128;28;19908;-73
2023/11/13 00:29:40;;;;;;;;;;;16.00;91.60;;;;;;5096148;28;19919;-73
2023/11/13 00:32:05;;;;;;;;;;;16.00;91.80;;;;;;5096096;28;19912;-73
2023/11/13 00:34:32;;;;;;;;;;;15.90;91.40;;;;;;5096180;28;19915;-73
2023/11/13 00:36:57;;;;;;;;;;;16.10;91.50;;;;;;5094711;28;19962;-73
2023/11/13 00:39:23;;;;;;;;;;;16.20;91.80;;;;;;5096222;28;19908;-73
2023/11/13 00:41:48;;;;;;;;;;;16.00;91.80;;;;;;5096152;28;19908;-73
2023/11/13 00:44:14;;;;;;;;;;;16.00;91.60;;;;;;5095839;28;19908;-73
2023/11/13 00:46:40;;;;;;;;;;;16.00;91.80;;;;;;5096067;28;20190;-73
2023/11/13 00:49:05;;;;;;;;;;;16.00;91.70;;;;;;5095707;28;19962;-73
2023/11/13 00:51:31;;;;;;;;;;;15.90;91.60;;;;;;5096273;28;19914;-73
2023/11/13 00:53:56;;;;;;;;;;;15.90;91.80;;;;;;5095712;28;19915;-73
2023/11/13 00:56:22;;;;;;;;;;;15.90;91.70;;;;;;5095539;28;19916;-73
2023/11/13 00:58:47;;;;;;;;;;;16.00;91.80;;;;;;5095464;28;20335;-73
2023/11/13 01:01:16;;;;;;;;;;;15.90;91.90;;;;;;5095576;28;19908;-73
2023/11/13 01:03:44;;;;;;;;;;;15.90;91.60;;;;;;5095436;28;19915;-73
2023/11/13 01:06:14;;;;;;;;;;;15.90;89.50;;;;;;5095430;28;20377;-73
2023/11/13 01:08:39;;;;;;;;;;;16.00;91.80;;;;;;5095382;28;19934;-73
2023/11/13 01:11:05;;;;;;;;;;;15.90;91.50;;;;;;5095344;28;19908;-73
2023/11/13 01:13:31;;;;;;;;;;;15.90;91.70;;;;;;5095173;28;19973;-73
2023/11/13 01:15:57;;;;;;;;;;;16.00;91.70;;;;;;5095416;28;20019;-73
2023/11/13 01:18:23;;;;;;;;;;;15.90;91.60;;;;;;5095929;28;20331;-73
2023/11/13 01:20:49;;;;;;;;;;;15.90;91.70;;;;;;5095544;28;19919;-73
2023/11/13 01:23:15;;;;;;;;;;;15.90;91.60;;;;;;5095138;28;19920;-73
2023/11/13 01:25:42;;;;;;;;;;;15.90;91.60;;;;;;5095345;28;19912;-73
2023/11/13 01:28:08;;;;;;;;;;;15.90;91.80;;;;;;5094951;28;19908;-73
2023/11/13 01:30:33;;;;;;;;;;;16.30;91.80;;;;;;5094881;28;20366;-74
2023/11/13 01:32:59;;;;;;;;;;;15.90;91.70;;;;;;5095018;28;19923;-73
2023/11/13 01:35:24;;;;;;;;;;;15.90;91.80;;;;;;5095022;28;20327;-73
2023/11/13 01:37:50;;;;;;;;;;;16.00;91.80;;;;;;5094286;28;19919;-73
2023/11/13 01:40:16;;;;;;;;;;;16.10;91.70;;;;;;5094789;28;19908;-73
2023/11/13 01:42:42;;;;;;;;;;;15.80;91.70;;;;;;5094671;28;19915;-73
2023/11/13 01:45:07;;;;;;;;;;;15.90;91.70;;;;;;5093422;28;19908;-73
2023/11/13 01:47:34;;;;;;;;;;;15.90;91.50;;;;;;5095387;28;19935;-74
2023/11/13 01:49:59;;;;;;;;;;;15.90;91.90;;;;;;5094521;28;19915;-74
2023/11/13 01:52:26;;;;;;;;;;;15.90;91.70;;;;;;5094471;28;19908;-74
2023/11/13 01:54:51;;;;;;;;;;;15.80;91.80;;;;;;5094569;28;20070;-74
2023/11/13 01:57:17;;;;;;;;;;;15.80;91.70;;;;;;5094350;28;20019;-74
2023/11/13 01:59:42;;;;;;;;;;;15.90;91.60;;;;;;5094415;28;19999;-73
2023/11/13 02:02:08;;;;;;;;;;;15.90;91.60;;;;;;5094335;28;19915;-73
2023/11/13 02:04:34;;;;;;;;;;;15.90;91.70;;;;;;5094376;28;19912;-73
2023/11/13 02:07:00;;;;;;;;;;;16.00;91.70;;;;;;5094301;28;20042;-73
2023/11/13 02:09:26;;;;;;;;;;;15.90;91.80;;;;;;5094276;28;19947;-73
2023/11/13 02:11:52;;;;;;;;;;;15.90;91.80;;;;;;5094227;28;19908;-73
2023/11/13 02:14:18;;;;;;;;;;;15.90;91.80;;;;;;5094015;28;20334;-73
2023/11/13 02:16:44;;;;;;;;;;;15.90;91.60;;;;;;5094718;28;19916;-73
2023/11/13 02:19:15;;;;;;;;;;;15.80;91.70;;;;;;5094369;28;20382;-73
2023/11/13 02:21:41;;;;;;;;;;;16.00;91.90;;;;;;5094214;28;20065;-73
2023/11/13 02:24:07;;;;;;;;;;;15.80;91.60;;;;;;5093852;28;20368;-73
2023/11/13 02:26:33;;;;;;;;;;;15.80;91.50;;;;;;5094174;28;19908;-73
2023/11/13 02:28:59;;;;;;;;;;;15.90;91.90;;;;;;5094136;28;20315;-73
2023/11/13 02:31:25;;;;;;;;;;;16.00;91.90;;;;;;5093755;28;20002;-73
2023/11/13 02:33:51;;;;;;;;;;;15.90;91.80;;;;;;5093974;28;19912;-73
2023/11/13 02:36:17;;;;;;;;;;;15.90;91.90;;;;;;5093958;28;20259;-73
2023/11/13 02:38:43;;;;;;;;;;;15.80;91.80;;;;;;5093655;28;20273;-73
2023/11/13 02:41:09;;;;;;;;;;;15.80;91.80;;;;;;5093628;28;19915;-73
2023/11/13 02:43:35;;;;;;;;;;;15.80;91.60;;;;;;5094115;28;19923;-73
2023/11/13 02:46:01;;;;;;;;;;;15.90;91.60;;;;;;5093828;28;19912;-73
2023/11/13 02:48:27;;;;;;;;;;;15.60;91.60;;;;;;5093781;28;19915;-72
2023/11/13 02:50:52;;;;;;;;;;;15.90;91.80;;;;;;5092187;28;20286;-73
2023/11/13 02:53:18;;;;;;;;;;;16.10;91.80;;;;;;5093682;28;19915;-73
2023/11/13 02:55:44;;;;;;;;;;;15.90;91.70;;;;;;5093310;28;19912;-73
2023/11/13 02:58:10;;;;;;;;;;;15.90;91.80;;;;;;5093320;28;19995;-73
2023/11/13 03:00:36;;;;;;;;;;;15.70;91.60;;;;;;5093640;28;19919;-73
2023/11/13 03:03:02;;;;;;;;;;;15.80;91.70;;;;;;5093470;28;20319;-73
2023/11/13 03:05:29;;;;;;;;;;;15.90;91.90;;;;;;5093606;28;19947;-73
2023/11/13 03:07:56;;;;;;;;;;;15.80;91.70;;;;;;5093324;28;20358;-73
2023/11/13 03:10:21;;;;;;;;;;;15.80;91.90;;;;;;5093512;28;19909;-73
2023/11/13 03:12:47;;;;;;;;;;;15.80;91.60;;;;;;5093603;28;19919;-73
2023/11/13 03:15:13;;;;;;;;;;;15.80;91.80;;;;;;5093109;28;20275;-73
2023/11/13 03:17:38;;;;;;;;;;;15.90;91.80;;;;;;5091775;28;19909;-73
2023/11/13 03:20:06;;;;;;;;;;;15.90;90.40;;;;;;5092207;28;20153;-73
2023/11/13 03:22:32;;;;;;;;;;;15.80;91.10;;;;;;5093101;28;20294;-73
2023/11/13 03:24:57;;;;;;;;;;;15.80;91.60;;;;;;5092935;28;19908;-73
2023/11/13 03:27:23;;;;;;;;;;;15.90;92.00;;;;;;5092875;28;19940;-73
2023/11/13 03:29:48;;;;;;;;;;;15.80;91.90;;;;;;5092881;28;19908;-72
2023/11/13 03:32:14;;;;;;;;;;;15.80;91.80;;;;;;5092846;28;19909;-73
2023/11/13 03:34:40;;;;;;;;;;;15.80;92.20;;;;;;5093070;28;19908;-73
2023/11/13 03:37:06;;;;;;;;;;;15.80;91.80;;;;;;5092930;28;19960;-73
2023/11/13 03:39:32;;;;;;;;;;;15.90;91.90;;;;;;5091530;28;20276;-73
2023/11/13 03:41:58;;;;;;;;;;;15.90;91.90;;;;;;5093170;28;19969;-73
2023/11/13 03:44:24;;;;;;;;;;;15.80;91.80;;;;;;5092915;28;20003;-73
2023/11/13 03:46:51;;;;;;;;;;;15.80;91.90;;;;;;5092953;28;20365;-73
2023/11/13 03:49:17;;;;;;;;;;;15.90;92.00;;;;;;5092843;28;19908;-73
2023/11/13 03:51:43;;;;;;;;;;;15.80;91.90;;;;;;5092909;28;19930;-73
2023/11/13 03:54:09;;;;;;;;;;;15.80;91.60;;;;;;5092630;28;20438;-73
2023/11/13 03:56:35;;;;;;;;;;;15.70;91.90;;;;;;5092395;28;19917;-73
2023/11/13 03:59:01;;;;;;;;;;;15.80;91.90;;;;;;5092744;28;20007;-73
2023/11/13 04:01:27;;;;;;;;;;;15.70;91.60;;;;;;5096283;28;19912;-73
2023/11/13 04:03:53;;;;;;;;;;;15.80;91.80;;;;;;5096914;28;19908;-73
2023/11/13 04:06:19;;;;;;;;;;;15.80;91.90;;;;;;5096840;28;19908;-73
2023/11/13 04:08:45;;;;;;;;;;;15.70;91.70;;;;;;5097063;28;19930;-73
2023/11/13 04:11:11;;;;;;;;;;;15.80;91.70;;;;;;5096698;28;19916;-73
2023/11/13 04:13:37;;;;;;;;;;;15.80;91.80;;;;;;5096291;28;19927;-73
2023/11/13 04:16:04;;;;;;;;;;;15.90;92.20;;;;;;5096480;28;19920;-73
2023/11/13 04:18:33;;;;;;;;;;;15.80;91.20;;;;;;5096319;28;19912;-73
2023/11/13 04:20:59;;;;;;;;;;;15.80;90.30;;;;;;5096312;28;19961;-73
2023/11/13 04:23:26;;;;;;;;;;;15.70;91.90;;;;;;5096560;28;19909;-73
2023/11/13 04:25:52;;;;;;;;;;;15.80;92.00;;;;;;5096519;28;19909;-73
2023/11/13 04:28:19;;;;;;;;;;;15.80;91.90;;;;;;5096031;28;19916;-73
2023/11/13 04:30:48;;;;;;;;;;;15.70;91.70;;;;;;5096471;28;19997;-73
2023/11/13 04:33:14;;;;;;;;;;;15.80;89.10;;;;;;5096388;28;19935;-73
2023/11/13 04:35:40;;;;;;;;;;;15.70;91.80;;;;;;5096349;28;20012;-73
2023/11/13 04:38:06;;;;;;;;;;;15.90;91.90;;;;;;5096750;28;19915;-73
2023/11/13 04:40:32;;;;;;;;;;;15.80;91.80;;;;;;5094767;28;19908;-73
2023/11/13 04:42:59;;;;;;;;;;;16.00;91.80;;;;;;5095949;28;19915;-73
2023/11/13 04:45:25;;;;;;;;;;;17.30;92.30;;;;;;5095842;28;20412;-73
2023/11/13 04:47:51;;;;;;;;;;;15.70;91.90;;;;;;5095872;28;19912;-73
2023/11/13 04:50:16;;;;;;;;;;;15.70;92.00;;;;;;5095979;28;20384;-73
2023/11/13 04:52:42;;;;;;;;;;;15.80;92.00;;;;;;5095792;28;19922;-73
2023/11/13 04:55:09;;;;;;;;;;;15.80;92.10;;;;;;5095785;28;19908;-73
2023/11/13 04:57:35;;;;;;;;;;;15.80;91.10;;;;;;5095611;28;20336;-73
2023/11/13 05:00:01;;;;;;;;;;;15.70;91.80;;;;;;5095630;28;19922;-73
2023/11/13 05:08:33;;;;;;;;;;;15.80;89.50;;;;;;5055067;28;19962;-69
2023/11/13 05:10:59;;;;;;;;;;;15.70;91.80;;;;;;5054152;28;20273;-69
2023/11/13 05:13:24;;;;;;;;;;;16.00;92.10;;;;;;5054643;28;19996;-69
2023/11/13 05:15:50;;;;;;;;;;;15.80;92.00;;;;;;5054746;28;20007;-68
2023/11/13 05:18:15;;;;;;;;;;;15.90;91.90;;;;;;5055218;28;19909;-69
2023/11/13 05:20:43;;;;;;;;;;;15.80;91.90;;;;;;5054915;28;19909;-71
2023/11/13 05:23:09;;;;;;;;;;;15.80;92.10;;;;;;5055013;28;19915;-71
2023/11/13 05:25:34;;;;;;;;;;;15.80;92.00;;;;;;5054767;28;20011;-71
2023/11/13 05:28:00;;;;;;;;;;;15.80;92.10;;;;;;5054709;28;19909;-71
2023/11/13 05:30:25;;;;;;;;;;;15.80;91.90;;;;;;5054689;28;19908;-71
2023/11/13 05:32:51;;;;;;;;;;;15.80;92.10;;;;;;5054719;28;19916;-71
2023/11/13 05:35:17;;;;;;;;;;;15.90;92.00;;;;;;5055116;28;19908;-71
2023/11/13 05:37:42;;;;;;;;;;;15.80;92.00;;;;;;5054639;28;19908;-71
2023/11/13 05:40:08;;;;;;;;;;;15.80;92.00;;;;;;5054415;28;19908;-71
2023/11/13 05:42:34;;;;;;;;;;;15.90;91.40;;;;;;5054631;28;19919;-71
2023/11/13 05:45:00;;;;;;;;;;;15.80;92.10;;;;;;5054590;28;19948;-71
2023/11/13 05:47:27;;;;;;;;;;;15.80;92.00;;;;;;5054615;28;20429;-71
2023/11/13 05:49:53;;;;;;;;;;;15.90;92.10;;;;;;5054527;28;19908;-71
2023/11/13 05:52:19;;;;;;;;;;;15.80;92.00;;;;;;5054141;28;20323;-71
2023/11/13 05:54:45;;;;;;;;;;;15.70;92.00;;;;;;5054207;28;19912;-71
2023/11/13 05:57:10;;;;;;;;;;;15.80;92.00;;;;;;5054105;28;19924;-71
2023/11/13 05:59:36;;;;;;;;;;;15.90;92.00;;;;;;5054019;28;20343;-71
2023/11/13 06:02:02;;;;;;;;;;;15.80;91.70;;;;;;5053603;28;19920;-71
2023/11/13 06:04:28;;;;;;;;;;;15.80;91.90;;;;;;5054659;28;19999;-71
2023/11/13 06:06:54;;;;;;;;;;;15.90;92.00;;;;;;5054050;28;19908;-71
2023/11/13 06:09:20;;;;;;;;;;;15.90;92.00;;;;;;5054046;28;19909;-71
2023/11/13 06:11:46;;;;;;;;;;;15.90;92.00;;;;;;5053888;28;19916;-71
2023/11/13 06:14:12;;;;;;;;;;;15.80;92.00;;;;;;5054038;28;19949;-71
2023/11/13 06:16:38;;;;;;;;;;;15.80;92.10;;;;;;5053944;28;19932;-71
2023/11/13 06:19:07;;;;;;;;;;;15.80;92.00;;;;;;5054211;28;19909;-71
2023/11/13 06:21:33;;;;;;;;;;;15.90;92.10;;;;;;5053571;28;19916;-76
2023/11/13 06:23:59;;;;;;;;;;;15.90;92.10;;;;;;5057894;28;19932;-72
2023/11/13 06:26:24;;;;;;;;;;;15.80;91.70;;;;;;5059140;28;19916;-70
2023/11/13 06:28:50;;;;;;;;;;;15.90;91.50;;;;;;5060029;28;19916;-73
2023/11/13 06:31:20;;;;;;;;;;;15.90;92.00;;;;;;5053537;28;20209;-76
2023/11/13 06:33:47;;;;;;;;;;;15.90;92.20;;;;;;5054026;28;19909;-74
2023/11/13 06:36:13;;;;;;;;;;;15.90;92.00;;;;;;5052922;28;20352;-73
2023/11/13 06:38:39;;;;;;;;;;;16.00;92.20;;;;;;5053251;28;19909;-72
2023/11/13 06:41:07;;;;;;;;;;;15.90;92.10;;;;;;5053189;28;19946;-72
2023/11/13 06:43:33;;;;;;;;;;;15.90;92.10;;;;;;5053594;28;20247;-74
2023/11/13 06:45:59;;;;;;;;;;;16.00;92.20;;;;;;5053139;28;19909;-73
2023/11/13 06:48:25;;;;;;;;;;;15.80;92.20;;;;;;5053130;28;19913;-73
2023/11/13 06:50:50;;;;;;;;;;;16.00;92.00;;;;;;5053092;28;20039;-72
2023/11/13 06:53:16;;;;;;;;;;;15.90;92.10;;;;;;5053142;28;19909;-72
2023/11/13 06:55:41;;;;;;;;;;;15.90;92.10;;;;;;5053310;28;19936;-72
2023/11/13 06:58:11;;;;;;;;;;;16.30;92.10;;;;;;5053004;28;19909;-73
2023/11/13 07:00:37;;;;;;;;;;;15.90;90.20;;;;;;5053510;28;19909;-73
2023/11/13 07:03:03;;;;;;;;;;;15.90;91.90;;;;;;5052773;28;19921;-72
2023/11/13 07:05:31;;;;;;;;;;;15.90;92.30;;;;;;5053166;28;19916;-71
2023/11/13 07:07:57;;;;;;;;;;;15.90;92.00;;;;;;5053066;28;19913;-72
2023/11/13 07:10:26;;;;;;;;;;;16.00;92.10;;;;;;5053093;28;20416;-72
2023/11/13 07:12:52;;;;;;;;;;;15.70;92.10;;;;;;5053069;28;19909;-71
2023/11/13 07:15:19;;;;;;;;;;;15.90;92.20;;;;;;5052835;28;20007;-72
2023/11/13 07:17:45;;;;;;;;;;;16.00;92.30;;;;;;5052704;28;20377;-72
2023/11/13 07:20:13;;;;;;;;;;;16.00;92.30;;;;;;5052631;28;19908;-72
2023/11/13 07:22:39;;;;;;;;;;;15.90;92.30;;;;;;5052650;28;19954;-72
2023/11/13 07:25:04;;;;;;;;;;;16.00;92.50;;;;;;5052561;28;20097;-71
2023/11/13 07:27:30;;;;;;;;;;;16.00;92.20;;;;;;5052514;28;19909;-72
2023/11/13 07:29:56;;;;;;;;;;;16.00;92.50;;;;;;5053164;28;20369;-72
2023/11/13 07:32:24;;;;;;;;;;;16.00;92.60;;;;;;5052742;28;20009;-72
2023/11/13 07:34:52;;;;;;;;;;;16.00;92.60;;;;;;5051759;28;19915;-71
2023/11/13 07:37:17;;;;;;;;;;;16.00;92.60;;;;;;5052357;28;19924;-72
2023/11/13 07:39:43;;;;;;;;;;;15.90;92.50;;;;;;5052399;28;19909;-72
2023/11/13 07:42:12;;;;;;;;;;;16.00;92.60;;;;;;5052399;28;19909;-72
2023/11/13 07:44:38;;;;;;;;;;;16.20;92.60;;;;;;5052400;28;20439;-72
2023/11/13 07:47:04;;;;;;;;;;;16.10;92.70;;;;;;5052265;28;19909;-71
2023/11/13 07:49:30;;;;;;;;;;;16.10;92.60;;;;;;5052313;28;20004;-72
2023/11/13 07:51:56;;;;;;;;;;;;;;;;;;5052502;28;20341;-70
2023/11/13 07:54:21;;;;;;;;;;;16.10;91.40;;;;;;5052100;28;19952;-71
2023/11/13 07:56:47;;;;;;;;;;;16.10;92.60;;;;;;5052109;28;19939;-71
2023/11/13 07:59:15;;;;;;;;;;;16.00;92.50;;;;;;5052222;28;19909;-72
2023/11/13 08:01:40;;;;;;;;;;;16.10;92.40;;;;;;5052230;28;19913;-72
2023/11/13 08:04:07;;;;;;;;;;;16.20;92.60;;;;;;5052276;28;20284;-71
2023/11/13 08:06:33;;;;;;;;;;;16.10;92.70;;;;;;5052456;28;19909;-71
2023/11/13 08:08:58;;;;;;;;;;;16.10;92.70;;;;;;5052167;28;19908;-71
2023/11/13 08:11:24;;;;;;;;;;;16.20;92.50;;;;;;5052032;28;19909;-71
2023/11/13 08:13:49;;;;;;;;;;;16.10;92.60;;;;;;5051470;28;19909;-72
2023/11/13 08:16:15;;;;;;;;;;;16.20;92.60;;;;;;5052063;28;20345;-72
2023/11/13 08:18:40;;;;;;;;;;;16.10;92.50;;;;;;5052171;28;19916;-71
2023/11/13 08:21:06;;;;;;;;;;;16.30;92.60;;;;;;5052074;28;19944;-71
2023/11/13 08:23:32;;;;;;;;;;;16.20;91.70;;;;;;5052121;28;20019;-71
2023/11/13 08:25:59;;;;;;;;;;;16.20;92.60;;;;;;5052386;28;19916;-71
2023/11/13 08:28:26;;;;;;;;;;;16.20;92.60;;;;;;5052160;28;19913;-70
2023/11/13 08:30:52;;;;;;;;;;;16.20;92.60;;;;;;5052336;28;19995;-71
2023/11/13 08:33:18;;;;;;;;;;;16.30;92.70;;;;;;5052180;28;19913;-71
2023/11/13 08:35:45;;;;;;;;;;;16.30;92.60;;;;;;5052680;28;19924;-71
2023/11/13 08:38:11;;;;;;;;;;;16.20;92.40;;;;;;5051957;28;19913;-71
2023/11/13 08:40:36;;;;;;;;;;;16.20;92.60;;;;;;5051907;28;19909;-71
2023/11/13 08:43:06;;;;;;;;;;;16.30;92.60;;;;;;5051879;28;20363;-71
2023/11/13 08:45:31;;;;;;;;;;;16.20;92.40;;;;;;5052344;28;19963;-70
2023/11/13 08:47:59;;;;;;;;;;;16.20;92.50;;;;;;5055707;28;20352;-71
2023/11/13 08:50:25;;;;;;;;;;;16.30;92.70;;;;;;5055711;28;20279;-72
2023/11/13 08:52:51;;;;;;;;;;;16.30;92.50;;;;;;5055524;28;19908;-71
2023/11/13 08:55:17;;;;;;;;;;;16.30;92.70;;;;;;5055403;28;19980;-72
2023/11/13 08:57:46;;;;;;;;;;;16.20;92.40;;;;;;5055299;28;20315;-72
2023/11/13 09:00:18;;;;;;;;;;;16.30;92.60;;;;;;5055598;28;19909;-72
2023/11/13 09:02:46;;;;;;;;;;;16.30;92.40;;;;;;5055235;28;20395;-72
2023/11/13 09:05:13;;;;;;;;;;;16.40;92.70;;;;;;5055464;28;20310;-72
2023/11/13 09:07:40;;;;;;;;;;;16.30;92.60;;;;;;5055448;28;19916;-71
2023/11/13 09:10:08;;;;;;;;;;;16.40;92.70;;;;;;5056841;28;19908;-70
2023/11/13 09:12:44;;;;;;;;;;;16.40;92.00;;;;;;5059926;28;20399;-71
2023/11/13 09:15:14;;;;;;;;;;;16.40;92.70;;;;;;5055373;28;19920;-71
2023/11/13 09:17:47;;;;;;;;;;;16.30;90.30;;;;;;5055117;28;19923;-73
2023/11/13 09:20:19;;;;;;;;;;;16.40;90.20;;;;;;5054855;28;19908;-72
2023/11/13 09:22:45;;;;;;;;;;;16.30;90.30;;;;;;5055617;28;19958;-73
2023/11/13 09:25:14;;;;;;;;;;;16.40;92.70;;;;;;5055028;28;19916;-74
2023/11/13 09:27:43;;;;;;;;;;;16.30;91.40;;;;;;5054700;28;19979;-72
2023/11/13 09:30:10;;;;;;;;;;;16.30;92.40;;;;;;5054956;28;19909;-73
2023/11/13 09:32:38;;;;;;;;;;;16.40;91.90;;;;;;5036988;28;19913;-73
2023/11/13 09:35:18;;;;;;;;;;;16.40;92.60;;;;;;5054645;28;20417;-72
2023/11/13 09:37:44;;;;;;;;;;;16.30;92.20;;;;;;5061222;28;19916;-71
2023/11/13 09:40:14;;;;;;;;;;;16.40;92.60;;;;;;5054628;28;20003;-71
2023/11/13 09:42:41;;;;;;;;;;;16.30;92.20;;;;;;5054482;28;20398;-71
2023/11/13 09:45:07;;;;;;;;;;;16.40;92.60;;;;;;5054479;28;20355;-71
2023/11/13 09:47:34;;;;;;;;;;;16.40;92.10;;;;;;5054704;28;20260;-71
2023/11/13 09:50:15;;;;;;;;;;;16.50;92.70;;;;;;5055105;28;19909;-71
2023/11/13 09:52:48;;;;;;;;;;;16.40;90.20;;;;;;5054649;28;19909;-72
2023/11/13 09:55:20;;;;;;;;;;;16.40;90.30;;;;;;5054344;28;19915;-71
2023/11/13 09:57:54;;;;;;;;;;;16.40;90.20;;;;;;5053821;28;19921;-72
2023/11/13 10:00:23;;;;;;;;;;;16.40;90.20;;;;;;5054296;28;19908;-71
2023/11/13 10:02:51;;;;;;;;;;;16.40;92.30;;;;;;5053970;28;19920;-71
2023/11/13 10:05:18;;;;;;;;;;;16.40;92.50;;;;;;5054368;28;19909;-72
2023/11/13 10:07:45;;;;;;;;;;;16.50;92.70;;;;;;5054101;28;19931;-72
2023/11/13 10:10:17;;;;;;;;;;;16.50;92.60;;;;;;5053951;28;19915;-71
2023/11/13 10:12:44;;;;;;;;;;;16.40;92.50;;;;;;5054151;28;19909;-74
2023/11/13 10:15:12;;;;;;;;;;;16.50;92.60;;;;;;5053947;28;19909;-72
2023/11/13 10:17:56;;;;;;;;;;;16.40;92.50;;;;;;5054016;28;19924;-72
2023/11/13 10:20:22;;;;;;;;;;;16.60;90.40;;;;;;5054227;28;19915;-71
2023/11/13 10:23:05;;;;;;;;;;;16.40;92.60;;;;;;5054062;28;19912;-70
2023/11/13 10:25:50;;;;;;;;;;;16.50;90.30;;;;;;5053993;28;19978;-70
2023/11/13 10:28:19;;;;;;;;;;;16.50;90.20;;;;;;5054002;28;19909;-70
2023/11/13 10:30:51;;;;;;;;;;;16.50;92.60;;;;;;5053863;28;19913;-71
2023/11/13 10:33:17;;;;;;;;;;;16.40;90.10;;;;;;5053891;28;20282;-70
2023/11/13 10:35:45;;;;;;;;;;;16.50;92.50;;;;;;5053388;28;19939;-70
2023/11/13 10:38:14;;;;;;;;;;;16.50;92.50;;;;;;5053933;28;19924;-70
2023/11/13 10:40:44;;;;;;;;;;;16.50;92.40;;;;;;5053344;28;20317;-75
2023/11/13 10:43:29;;;;;;;;;;;16.80;92.70;;;;;;5053634;28;19916;-72
2023/11/13 10:45:56;;;;;;;;;;;16.50;92.60;;;;;;5052786;28;19913;-71
2023/11/13 10:48:22;;;;;;;;;;;16.50;92.50;;;;;;5053425;28;19951;-75
2023/11/13 10:50:49;;;;;;;;;;;16.50;92.60;;;;;;5053405;28;19908;-74
2023/11/13 10:53:16;;;;;;;;;;;16.50;92.70;;;;;;5053419;28;20000;-73
2023/11/13 10:55:42;;;;;;;;;;;16.50;92.60;;;;;;5053818;28;20331;-73
2023/11/13 10:58:08;;;;;;;;;;;16.50;91.80;;;;;;5035604;28;19915;-73
2023/11/13 11:00:34;;;;;;;;;;;16.50;92.60;;;;;;5053294;28;20003;-73
2023/11/13 11:03:04;;;;;;;;;;;16.40;92.40;;;;;;5052814;28;19987;-73
2023/11/13 11:05:30;;;;;;;;;;;16.60;92.70;;;;;;5053062;28;19909;-73
2023/11/13 11:07:58;;;;;;;;;;;16.40;92.60;;;;;;5053258;28;19916;-73
2023/11/13 11:10:25;;;;;;;;;;;16.50;92.60;;;;;;5054781;28;19916;-72
2023/11/13 11:13:00;;;;;;;;;;;16.40;92.40;;;;;;5058725;28;19909;-74
2023/11/13 11:15:37;;;;;;;;;;;16.50;89.90;;;;;;5056731;28;19963;-74
2023/11/13 11:18:09;;;;;;;;;;;16.60;90.30;;;;;;5052982;28;19916;-74
2023/11/13 11:20:46;;;;;;;;;;;16.50;92.50;;;;;;5052942;28;19913;-76
2023/11/13 11:23:14;;;;;;;;;;;16.50;90.30;;;;;;5052714;28;20363;-73
2023/11/13 11:25:46;;;;;;;;;;;16.40;92.60;;;;;;5052660;28;20366;-73
2023/11/13 11:28:31;;;;;;;;;;;16.50;90.30;;;;;;5052930;28;19908;-74
2023/11/13 11:31:04;;;;;;;;;;;16.50;90.30;;;;;;5052796;28;19916;-74
2023/11/13 11:33:36;;;;;;;;;;;16.50;92.70;;;;;;5052787;28;20000;-73
2023/11/13 11:36:03;;;;;;;;;;;16.60;90.30;;;;;;5052390;28;19944;-74
2023/11/13 11:38:29;;;;;;;;;;;16.50;92.70;;;;;;5052491;28;19909;-73
2023/11/13 11:40:59;;;;;;;;;;;16.50;92.70;;;;;;5052628;28;19913;-73
2023/11/13 11:43:28;;;;;;;;;;;16.50;92.70;;;;;;5053044;28;19912;-72
2023/11/13 11:45:56;;;;;;;;;;;16.60;92.90;;;;;;5052545;28;19909;-73
2023/11/13 11:48:22;;;;;;;;;;;16.60;92.90;;;;;;5052201;28;19995;-72
2023/11/13 11:51:11;;;;;;;;;;;16.50;92.90;;;;;;5053339;28;19920;-75
2023/11/13 11:53:37;;;;;;;;;;;16.00;90.30;;;;;;5046394;28;20304;-71
2023/11/13 11:56:04;;;;;;;;;;;16.60;92.90;;;;;;5052080;28;19912;-70
2023/11/13 11:58:29;;;;;;;;;;;16.60;92.70;;;;;;5052095;28;19913;-70
2023/11/13 12:00:57;;;;;;;;;;;16.60;93.00;;;;;;5052310;28;19913;-70
2023/11/13 12:03:24;;;;;;;;;;;16.50;92.90;;;;;;5051869;28;19928;-70
2023/11/13 12:05:50;;;;;;;;;;;16.60;93.00;;;;;;5052200;28;19916;-70
2023/11/13 12:08:16;;;;;;;;;;;16.60;92.80;;;;;;5051881;28;19915;-70
2023/11/13 12:10:42;;;;;;;;;;;16.90;93.30;;;;;;5051998;28;19917;-70
2023/11/13 12:13:09;;;;;;;;;;;16.60;93.20;;;;;;5051899;28;19909;-70
2023/11/13 12:15:35;;;;;;;;;;;16.60;93.40;;;;;;5051868;28;19919;-70
2023/11/13 12:18:02;;;;;;;;;;;16.60;93.30;;;;;;5051779;28;19999;-70
2023/11/13 12:20:29;;;;;;;;;;;16.70;93.40;;;;;;5052479;28;19932;-70
2023/11/13 12:22:56;;;;;;;;;;;16.60;93.40;;;;;;5055692;28;19909;-70
2023/11/13 12:25:23;;;;;;;;;;;16.70;93.30;;;;;;5055643;28;19955;-70
2023/11/13 12:27:49;;;;;;;;;;;16.90;93.70;;;;;;5055688;28;20363;-70
2023/11/13 12:30:22;;;;;;;;;;;16.60;93.50;;;;;;5055735;28;19932;-71
2023/11/13 12:32:48;;;;;;;;;;;16.60;92.90;;;;;;5055717;28;19951;-69
2023/11/13 12:35:17;;;;;;;;;;;16.60;93.80;;;;;;5055938;28;20286;-69
2023/11/13 12:37:49;;;;;;;;;;;16.70;91.90;;;;;;5055591;28;20366;-70
2023/11/13 12:40:16;;;;;;;;;;;16.70;91.50;;;;;;5055775;28;19913;-69
2023/11/13 12:42:43;;;;;;;;;;;16.70;93.80;;;;;;5055818;28;19913;-70
2023/11/13 12:45:10;;;;;;;;;;;16.70;93.90;;;;;;5055796;28;19909;-69
2023/11/13 12:47:36;;;;;;;;;;;16.70;93.70;;;;;;5056255;28;19913;-70
2023/11/13 12:50:02;;;;;;;;;;;16.70;94.00;;;;;;5055704;28;19909;-69
2023/11/13 12:52:28;;;;;;;;;;;16.80;93.90;;;;;;5055324;28;19908;-69
2023/11/13 12:54:55;;;;;;;;;;;16.80;93.90;;;;;;5055289;28;19909;-70
2023/11/13 12:57:22;;;;;;;;;;;16.80;93.50;;;;;;5037904;28;19956;-70
2023/11/13 12:59:48;;;;;;;;;;;16.80;94.10;;;;;;5055382;28;19916;-70
2023/11/13 13:02:15;;;;;;;;;;;16.80;93.90;;;;;;5055148;28;20294;-70
2023/11/13 13:04:41;;;;;;;;;;;16.80;94.10;;;;;;5055412;28;19909;-69
2023/11/13 13:07:09;;;;;;;;;;;16.80;94.10;;;;;;5055055;28;19909;-69
2023/11/13 13:09:35;;;;;;;;;;;16.70;93.90;;;;;;5055413;28;20303;-69
2023/11/13 13:12:05;;;;;;;;;;;16.80;94.10;;;;;;5055397;28;19916;-70
2023/11/13 13:14:31;;;;;;;;;;;16.90;91.90;;;;;;5055170;28;20007;-71
2023/11/13 13:17:00;;;;;;;;;;;16.90;93.90;;;;;;5055075;28;19917;-71
2023/11/13 13:19:27;;;;;;;;;;;17.00;94.20;;;;;;5055300;28;19912;-71
2023/11/13 13:21:55;;;;;;;;;;;17.00;94.00;;;;;;5054941;28;19909;-73
2023/11/13 13:24:25;;;;;;;;;;;17.20;93.90;;;;;;5054964;28;19909;-73
2023/11/13 13:26:52;;;;;;;;;;;17.30;94.00;;;;;;5055175;28;19909;-72
2023/11/13 13:29:20;;;;;;;;;;;17.30;94.00;;;;;;5054776;28;19909;-72
2023/11/13 13:31:46;;;;;;;;;;;17.20;93.90;;;;;;5054565;28;20340;-72
2023/11/13 13:34:13;;;;;;;;;;;17.40;94.00;;;;;;5053892;28;19908;-71
2023/11/13 13:36:43;;;;;;;;;;;17.20;93.80;;;;;;5054733;28;19917;-72
2023/11/13 13:39:14;;;;;;;;;;;17.20;94.20;;;;;;5054808;28;20275;-71
2023/11/13 13:41:41;;;;;;;;;;;17.30;94.10;;;;;;5054759;28;19909;-71
2023/11/13 13:44:09;;;;;;;;;;;17.20;94.40;;;;;;5054410;28;19916;-71
2023/11/13 13:46:35;;;;;;;;;;;17.20;94.00;;;;;;5054731;28;19915;-72
2023/11/13 13:49:00;;;;;;;;;;;17.20;94.30;;;;;;5054625;28;19991;-71
2023/11/13 13:51:26;;;;;;;;;;;17.20;94.20;;;;;;5054553;28;19916;-71
2023/11/13 13:53:52;;;;;;;;;;;17.30;94.10;;;;;;5055138;28;19909;-71
2023/11/13 13:56:21;;;;;;;;;;;17.40;94.20;;;;;;5054492;28;19947;-71
2023/11/13 13:58:48;;;;;;;;;;;17.50;94.10;;;;;;5054170;28;19909;-72
2023/11/13 14:01:15;;;;;;;;;;;17.50;93.80;;;;;;5054318;28;19909;-71
2023/11/13 14:03:41;;;;;;;;;;;17.60;94.00;;;;;;5053891;28;20367;-71
2023/11/13 14:06:07;;;;;;;;;;;17.60;94.00;;;;;;5054247;28;19916;-71
2023/11/13 14:08:35;;;;;;;;;;;17.70;93.30;;;;;;5053856;28;19916;-71
2023/11/13 14:11:01;;;;;;;;;;;17.70;93.60;;;;;;5053641;28;19928;-72
2023/11/13 14:13:27;;;;;;;;;;;17.80;93.60;;;;;;5053537;28;19909;-71
2023/11/13 14:15:53;;;;;;;;;;;17.90;93.70;;;;;;5053787;28;19912;-71
2023/11/13 14:18:22;;;;;;;;;;;17.90;93.60;;;;;;5053760;28;19984;-71
2023/11/13 14:20:48;;;;;;;;;;;17.90;93.70;;;;;;5054233;28;19909;-71
2023/11/13 14:23:15;;;;;;;;;;;18.00;93.40;;;;;;5053481;28;19909;-71